sensor_id;sensor_type;location;lat;lon;timestamp;P1;durP1;ratioP1;P2;durP2;ratioP2
44784;SDS011;30507;53.160;8.210;2023-05-17T00:00:14;0.70;;;0.43;;
44784;SDS011;30507;53.160;8.210;2023-05-17T00:02:39;0.93;;;0.43;;
44784;SDS011;30507;53.160;8.210;2023-05-17T00:05:04;1.47;;;0.67;;
44784;SDS011;30507;53.160;8.210;2023-05-17T00:07:30;0.40;;;0.40;;
44784;SDS011;30507;53.160;8.210;2023-05-17T00:09:55;1.30;;;0.80;;
44784;SDS011;30507;53.160;8.210;2023-05-17T00:12:21;0.40;;;0.40;;
44784;SDS011;30507;53.160;8.210;2023-05-17T00:14:46;0.68;;;0.55;;
44784;SDS011;30507;53.160;8.210;2023-05-17T00:17:11;0.80;;;0.50;;
44784;SDS011;30507;53.160;8.210;2023-05-17T00:19:36;1.33;;;0.75;;
44784;SDS011;30507;53.160;8.210;2023-05-17T00:22:01;0.68;;;0.43;;
44784;SDS011;30507;53.160;8.210;2023-05-17T00:24:26;0.40;;;0.40;;
44784;SDS011;30507;53.160;8.210;2023-05-17T00:26:52;0.52;;;0.47;;
44784;SDS011;30507;53.160;8.210;2023-05-17T00:29:17;0.50;;;0.50;;
44784;SDS011;30507;53.160;8.210;2023-05-17T00:31:42;0.77;;;0.60;;
44784;SDS011;30507;53.160;8.210;2023-05-17T00:34:07;1.63;;;0.82;;
44784;SDS011;30507;53.160;8.210;2023-05-17T00:36:32;0.50;;;0.50;;
44784;SDS011;30507;53.160;8.210;2023-05-17T00:38:57;1.15;;;0.40;;
44784;SDS011;30507;53.160;8.210;2023-05-17T00:41:22;0.57;;;0.38;;
44784;SDS011;30507;53.160;8.210;2023-05-17T00:43:48;0.60;;;0.60;;
44784;SDS011;30507;53.160;8.210;2023-05-17T00:46:13;1.25;;;0.40;;
44784;SDS011;30507;53.160;8.210;2023-05-17T00:48:40;0.63;;;0.63;;
44784;SDS011;30507;53.160;8.210;2023-05-17T00:51:05;1.27;;;0.80;;
44784;SDS011;30507;53.160;8.210;2023-05-17T00:53:30;0.90;;;0.70;;
44784;SDS011;30507;53.160;8.210;2023-05-17T00:55:56;0.53;;;0.53;;
44784;SDS011;30507;53.160;8.210;2023-05-17T00:58:21;1.20;;;0.67;;
44784;SDS011;30507;53.160;8.210;2023-05-17T01:00:46;0.95;;;0.80;;
44784;SDS011;30507;53.160;8.210;2023-05-17T01:03:12;1.07;;;0.60;;
44784;SDS011;30507;53.160;8.210;2023-05-17T01:05:37;1.05;;;0.70;;
44784;SDS011;30507;53.160;8.210;2023-05-17T01:08:02;0.50;;;0.37;;
44784;SDS011;30507;53.160;8.210;2023-05-17T01:11:31;1.03;;;0.63;;
44784;SDS011;30507;53.160;8.210;2023-05-17T01:16:16;0.55;;;0.55;;
44784;SDS011;30507;53.160;8.210;2023-05-17T01:18:47;0.22;;;0.22;;
44784;SDS011;30507;53.160;8.210;2023-05-17T01:26:19;0.60;;;0.60;;
44784;SDS011;30507;53.160;8.210;2023-05-17T01:31:11;1.00;;;0.80;;
44784;SDS011;30507;53.160;8.210;2023-05-17T01:33:37;0.52;;;0.40;;
44784;SDS011;30507;53.160;8.210;2023-05-17T01:36:02;0.55;;;0.55;;
44784;SDS011;30507;53.160;8.210;2023-05-17T01:38:27;0.40;;;0.40;;
44784;SDS011;30507;53.160;8.210;2023-05-17T01:40:57;0.43;;;0.43;;
44784;SDS011;30507;53.160;8.210;2023-05-17T01:43:28;0.55;;;0.55;;
44784;SDS011;30507;53.160;8.210;2023-05-17T01:45:57;0.50;;;0.43;;
44784;SDS011;30507;53.160;8.210;2023-05-17T01:48:30;0.55;;;0.55;;
44784;SDS011;30507;53.160;8.210;2023-05-17T01:50:55;0.88;;;0.50;;
44784;SDS011;30507;53.160;8.210;2023-05-17T01:53:29;0.77;;;0.40;;
44784;SDS011;30507;53.160;8.210;2023-05-17T01:55:56;0.70;;;0.60;;
44784;SDS011;30507;53.160;8.210;2023-05-17T01:58:21;0.40;;;0.40;;
44784;SDS011;30507;53.160;8.210;2023-05-17T02:00:49;0.75;;;0.60;;
44784;SDS011;30507;53.160;8.210;2023-05-17T02:03:16;0.50;;;0.50;;
44784;SDS011;30507;53.160;8.210;2023-05-17T02:05:42;0.68;;;0.50;;
44784;SDS011;30507;53.160;8.210;2023-05-17T02:08:07;1.83;;;0.55;;
44784;SDS011;30507;53.160;8.210;2023-05-17T02:10:32;0.50;;;0.43;;
44784;SDS011;30507;53.160;8.210;2023-05-17T02:12:57;0.90;;;0.60;;
44784;SDS011;30507;53.160;8.210;2023-05-17T02:15:22;0.35;;;0.35;;
44784;SDS011;30507;53.160;8.210;2023-05-17T02:17:47;0.70;;;0.70;;
44784;SDS011;30507;53.160;8.210;2023-05-17T02:20:13;1.10;;;0.60;;
44784;SDS011;30507;53.160;8.210;2023-05-17T02:22:38;0.20;;;0.20;;
44784;SDS011;30507;53.160;8.210;2023-05-17T02:25:04;0.87;;;0.63;;
44784;SDS011;30507;53.160;8.210;2023-05-17T02:27:29;0.40;;;0.35;;
44784;SDS011;30507;53.160;8.210;2023-05-17T02:29:55;0.63;;;0.57;;
44784;SDS011;30507;53.160;8.210;2023-05-17T02:32:20;0.83;;;0.50;;
44784;SDS011;30507;53.160;8.210;2023-05-17T02:34:45;0.55;;;0.55;;
44784;SDS011;30507;53.160;8.210;2023-05-17T02:37:10;0.47;;;0.30;;
44784;SDS011;30507;53.160;8.210;2023-05-17T02:39:35;1.00;;;0.47;;
44784;SDS011;30507;53.160;8.210;2023-05-17T02:42:00;0.30;;;0.30;;
44784;SDS011;30507;53.160;8.210;2023-05-17T02:44:25;0.50;;;0.38;;
44784;SDS011;30507;53.160;8.210;2023-05-17T02:46:51;0.43;;;0.33;;
44784;SDS011;30507;53.160;8.210;2023-05-17T02:49:16;0.88;;;0.38;;
44784;SDS011;30507;53.160;8.210;2023-05-17T02:51:41;0.47;;;0.30;;
44784;SDS011;30507;53.160;8.210;2023-05-17T02:54:06;0.90;;;0.87;;
44784;SDS011;30507;53.160;8.210;2023-05-17T02:56:31;0.60;;;0.40;;
44784;SDS011;30507;53.160;8.210;2023-05-17T02:58:57;0.40;;;0.40;;
44784;SDS011;30507;53.160;8.210;2023-05-17T03:01:25;0.88;;;0.77;;
44784;SDS011;30507;53.160;8.210;2023-05-17T03:03:50;0.40;;;0.40;;
44784;SDS011;30507;53.160;8.210;2023-05-17T03:06:15;0.35;;;0.25;;
44784;SDS011;30507;53.160;8.210;2023-05-17T03:08:40;0.20;;;0.20;;
44784;SDS011;30507;53.160;8.210;2023-05-17T03:11:05;0.40;;;0.30;;
44784;SDS011;30507;53.160;8.210;2023-05-17T03:13:31;0.35;;;0.20;;
44784;SDS011;30507;53.160;8.210;2023-05-17T03:15:56;0.38;;;0.38;;
44784;SDS011;30507;53.160;8.210;2023-05-17T03:18:21;1.48;;;0.43;;
44784;SDS011;30507;53.160;8.210;2023-05-17T03:20:46;1.40;;;0.50;;
44784;SDS011;30507;53.160;8.210;2023-05-17T03:23:11;0.93;;;0.63;;
44784;SDS011;30507;53.160;8.210;2023-05-17T03:25:36;0.30;;;0.25;;
44784;SDS011;30507;53.160;8.210;2023-05-17T03:28:02;0.30;;;0.30;;
44784;SDS011;30507;53.160;8.210;2023-05-17T03:30:27;0.57;;;0.47;;
44784;SDS011;30507;53.160;8.210;2023-05-17T03:32:52;0.28;;;0.25;;
44784;SDS011;30507;53.160;8.210;2023-05-17T03:35:17;0.40;;;0.40;;
44784;SDS011;30507;53.160;8.210;2023-05-17T03:37:42;0.90;;;0.40;;
44784;SDS011;30507;53.160;8.210;2023-05-17T03:40:07;0.43;;;0.28;;
44784;SDS011;30507;53.160;8.210;2023-05-17T03:42:33;1.17;;;0.70;;
44784;SDS011;30507;53.160;8.210;2023-05-17T03:44:58;0.90;;;0.60;;
44784;SDS011;30507;53.160;8.210;2023-05-17T03:47:23;0.60;;;0.32;;
44784;SDS011;30507;53.160;8.210;2023-05-17T03:49:49;0.20;;;0.20;;
44784;SDS011;30507;53.160;8.210;2023-05-17T03:52:14;0.30;;;0.30;;
44784;SDS011;30507;53.160;8.210;2023-05-17T03:54:39;0.50;;;0.10;;
44784;SDS011;30507;53.160;8.210;2023-05-17T03:57:05;0.63;;;0.40;;
44784;SDS011;30507;53.160;8.210;2023-05-17T03:59:30;1.93;;;0.23;;
44784;SDS011;30507;53.160;8.210;2023-05-17T04:01:55;0.40;;;0.40;;
44784;SDS011;30507;53.160;8.210;2023-05-17T04:04:20;0.30;;;0.30;;
44784;SDS011;30507;53.160;8.210;2023-05-17T04:06:45;0.93;;;0.50;;
44784;SDS011;30507;53.160;8.210;2023-05-17T04:09:10;0.50;;;0.50;;
44784;SDS011;30507;53.160;8.210;2023-05-17T04:11:37;1.15;;;0.55;;
44784;SDS011;30507;53.160;8.210;2023-05-17T04:14:04;0.30;;;0.30;;
44784;SDS011;30507;53.160;8.210;2023-05-17T04:16:29;0.68;;;0.55;;
44784;SDS011;30507;53.160;8.210;2023-05-17T04:18:54;1.27;;;0.20;;
44784;SDS011;30507;53.160;8.210;2023-05-17T04:21:20;2.17;;;0.50;;
44784;SDS011;30507;53.160;8.210;2023-05-17T04:23:45;0.60;;;0.20;;
44784;SDS011;30507;53.160;8.210;2023-05-17T04:26:10;0.60;;;0.30;;
44784;SDS011;30507;53.160;8.210;2023-05-17T04:28:35;0.40;;;0.40;;
44784;SDS011;30507;53.160;8.210;2023-05-17T04:31:00;0.40;;;0.40;;
44784;SDS011;30507;53.160;8.210;2023-05-17T04:33:26;0.30;;;0.30;;
44784;SDS011;30507;53.160;8.210;2023-05-17T04:35:53;1.05;;;0.70;;
44784;SDS011;30507;53.160;8.210;2023-05-17T04:38:18;1.00;;;0.35;;
44784;SDS011;30507;53.160;8.210;2023-05-17T04:40:43;0.52;;;0.25;;
44784;SDS011;30507;53.160;8.210;2023-05-17T04:43:08;1.52;;;0.65;;
44784;SDS011;30507;53.160;8.210;2023-05-17T04:45:33;1.52;;;0.75;;
44784;SDS011;30507;53.160;8.210;2023-05-17T04:47:59;0.67;;;0.40;;
44784;SDS011;30507;53.160;8.210;2023-05-17T04:50:24;1.33;;;0.50;;
44784;SDS011;30507;53.160;8.210;2023-05-17T04:52:49;1.17;;;0.67;;
44784;SDS011;30507;53.160;8.210;2023-05-17T04:55:15;2.67;;;0.75;;
44784;SDS011;30507;53.160;8.210;2023-05-17T04:57:40;2.07;;;0.90;;
44784;SDS011;30507;53.160;8.210;2023-05-17T05:00:06;1.63;;;1.00;;
44784;SDS011;30507;53.160;8.210;2023-05-17T05:02:31;2.97;;;1.08;;
44784;SDS011;30507;53.160;8.210;2023-05-17T05:04:56;2.67;;;0.82;;
44784;SDS011;30507;53.160;8.210;2023-05-17T05:07:22;1.40;;;0.93;;
44784;SDS011;30507;53.160;8.210;2023-05-17T05:09:47;2.08;;;0.52;;
44784;SDS011;30507;53.160;8.210;2023-05-17T05:12:12;1.03;;;0.73;;
44784;SDS011;30507;53.160;8.210;2023-05-17T05:14:37;1.98;;;0.93;;
44784;SDS011;30507;53.160;8.210;2023-05-17T05:17:02;2.47;;;0.93;;
44784;SDS011;30507;53.160;8.210;2023-05-17T05:19:27;2.97;;;1.30;;
44784;SDS011;30507;53.160;8.210;2023-05-17T05:21:52;2.58;;;1.08;;
44784;SDS011;30507;53.160;8.210;2023-05-17T05:24:17;2.10;;;1.10;;
44784;SDS011;30507;53.160;8.210;2023-05-17T05:26:43;0.97;;;0.90;;
44784;SDS011;30507;53.160;8.210;2023-05-17T05:29:09;1.42;;;0.95;;
44784;SDS011;30507;53.160;8.210;2023-05-17T05:31:34;3.08;;;1.63;;
44784;SDS011;30507;53.160;8.210;2023-05-17T05:33:59;4.60;;;0.90;;
44784;SDS011;30507;53.160;8.210;2023-05-17T05:36:25;1.70;;;1.00;;
44784;SDS011;30507;53.160;8.210;2023-05-17T05:38:50;1.90;;;1.15;;
44784;SDS011;30507;53.160;8.210;2023-05-17T05:41:18;1.95;;;0.98;;
44784;SDS011;30507;53.160;8.210;2023-05-17T05:43:43;2.65;;;0.93;;
44784;SDS011;30507;53.160;8.210;2023-05-17T05:46:08;3.00;;;1.17;;
44784;SDS011;30507;53.160;8.210;2023-05-17T05:48:33;1.87;;;1.00;;
44784;SDS011;30507;53.160;8.210;2023-05-17T05:50:58;3.90;;;0.80;;
44784;SDS011;30507;53.160;8.210;2023-05-17T05:53:24;4.50;;;1.07;;
44784;SDS011;30507;53.160;8.210;2023-05-17T05:55:49;1.50;;;1.20;;
44784;SDS011;30507;53.160;8.210;2023-05-17T05:58:14;2.70;;;1.03;;
44784;SDS011;30507;53.160;8.210;2023-05-17T06:00:39;4.35;;;1.42;;
44784;SDS011;30507;53.160;8.210;2023-05-17T06:03:05;2.90;;;1.17;;
44784;SDS011;30507;53.160;8.210;2023-05-17T06:05:30;1.90;;;0.90;;
44784;SDS011;30507;53.160;8.210;2023-05-17T06:07:55;3.23;;;0.87;;
44784;SDS011;30507;53.160;8.210;2023-05-17T06:10:21;4.50;;;1.25;;
44784;SDS011;30507;53.160;8.210;2023-05-17T06:12:46;2.30;;;1.27;;
44784;SDS011;30507;53.160;8.210;2023-05-17T06:15:11;1.50;;;0.80;;
44784;SDS011;30507;53.160;8.210;2023-05-17T06:17:37;4.03;;;1.57;;
44784;SDS011;30507;53.160;8.210;2023-05-17T06:20:02;3.07;;;1.10;;
44784;SDS011;30507;53.160;8.210;2023-05-17T06:22:27;1.65;;;1.40;;
44784;SDS011;30507;53.160;8.210;2023-05-17T06:24:52;2.80;;;0.88;;
44784;SDS011;30507;53.160;8.210;2023-05-17T06:27:17;3.92;;;1.45;;
44784;SDS011;30507;53.160;8.210;2023-05-17T06:29:42;1.95;;;1.10;;
44784;SDS011;30507;53.160;8.210;2023-05-17T06:32:08;4.22;;;1.40;;
44784;SDS011;30507;53.160;8.210;2023-05-17T06:34:33;2.53;;;1.10;;
44784;SDS011;30507;53.160;8.210;2023-05-17T06:36:58;4.17;;;0.80;;
44784;SDS011;30507;53.160;8.210;2023-05-17T06:39:23;1.35;;;0.65;;
44784;SDS011;30507;53.160;8.210;2023-05-17T06:41:49;1.60;;;1.27;;
44784;SDS011;30507;53.160;8.210;2023-05-17T06:44:14;2.67;;;1.30;;
44784;SDS011;30507;53.160;8.210;2023-05-17T06:46:39;3.80;;;2.10;;
44784;SDS011;30507;53.160;8.210;2023-05-17T06:49:04;2.43;;;1.33;;
44784;SDS011;30507;53.160;8.210;2023-05-17T06:51:29;3.35;;;1.48;;
44784;SDS011;30507;53.160;8.210;2023-05-17T06:53:55;2.22;;;1.00;;
44784;SDS011;30507;53.160;8.210;2023-05-17T06:56:20;4.00;;;1.13;;
44784;SDS011;30507;53.160;8.210;2023-05-17T06:58:45;1.67;;;0.80;;
44784;SDS011;30507;53.160;8.210;2023-05-17T07:01:11;2.13;;;1.37;;
44784;SDS011;30507;53.160;8.210;2023-05-17T07:03:36;1.17;;;0.98;;
44784;SDS011;30507;53.160;8.210;2023-05-17T07:06:01;2.00;;;1.15;;
44784;SDS011;30507;53.160;8.210;2023-05-17T07:08:27;1.60;;;0.60;;
44784;SDS011;30507;53.160;8.210;2023-05-17T07:10:52;6.43;;;1.60;;
44784;SDS011;30507;53.160;8.210;2023-05-17T07:13:17;2.60;;;1.13;;
44784;SDS011;30507;53.160;8.210;2023-05-17T07:15:43;2.50;;;1.30;;
44784;SDS011;30507;53.160;8.210;2023-05-17T07:18:08;4.60;;;0.90;;
44784;SDS011;30507;53.160;8.210;2023-05-17T07:20:33;2.23;;;0.73;;
44784;SDS011;30507;53.160;8.210;2023-05-17T07:22:58;4.10;;;0.97;;
44784;SDS011;30507;53.160;8.210;2023-05-17T07:25:23;2.13;;;1.10;;
44784;SDS011;30507;53.160;8.210;2023-05-17T07:27:49;1.20;;;1.10;;
44784;SDS011;30507;53.160;8.210;2023-05-17T07:30:14;1.25;;;0.90;;
44784;SDS011;30507;53.160;8.210;2023-05-17T07:32:40;0.97;;;0.70;;
44784;SDS011;30507;53.160;8.210;2023-05-17T07:35:05;1.65;;;1.27;;
44784;SDS011;30507;53.160;8.210;2023-05-17T07:37:30;0.90;;;0.80;;
44784;SDS011;30507;53.160;8.210;2023-05-17T07:39:55;1.70;;;1.23;;
44784;SDS011;30507;53.160;8.210;2023-05-17T07:42:20;0.88;;;0.70;;
44784;SDS011;30507;53.160;8.210;2023-05-17T07:44:45;1.55;;;1.15;;
44784;SDS011;30507;53.160;8.210;2023-05-17T07:47:12;1.52;;;0.60;;
44784;SDS011;30507;53.160;8.210;2023-05-17T07:49:37;2.00;;;0.97;;
44784;SDS011;30507;53.160;8.210;2023-05-17T07:52:02;3.35;;;1.55;;
44784;SDS011;30507;53.160;8.210;2023-05-17T07:54:28;1.80;;;0.80;;
44784;SDS011;30507;53.160;8.210;2023-05-17T07:56:53;2.00;;;0.80;;
44784;SDS011;30507;53.160;8.210;2023-05-17T07:59:22;1.27;;;0.40;;
44784;SDS011;30507;53.160;8.210;2023-05-17T08:01:47;1.40;;;0.70;;
44784;SDS011;30507;53.160;8.210;2023-05-17T08:04:13;1.80;;;0.87;;
44784;SDS011;30507;53.160;8.210;2023-05-17T08:06:38;0.63;;;0.60;;
44784;SDS011;30507;53.160;8.210;2023-05-17T08:09:03;2.45;;;0.88;;
44784;SDS011;30507;53.160;8.210;2023-05-17T08:11:28;1.65;;;0.80;;
44784;SDS011;30507;53.160;8.210;2023-05-17T08:13:54;1.30;;;0.70;;
44784;SDS011;30507;53.160;8.210;2023-05-17T08:16:19;1.30;;;0.80;;
44784;SDS011;30507;53.160;8.210;2023-05-17T08:18:44;1.40;;;1.30;;
44784;SDS011;30507;53.160;8.210;2023-05-17T08:21:10;1.30;;;0.93;;
44784;SDS011;30507;53.160;8.210;2023-05-17T08:23:35;1.00;;;0.53;;
44784;SDS011;30507;53.160;8.210;2023-05-17T08:26:00;1.73;;;0.70;;
44784;SDS011;30507;53.160;8.210;2023-05-17T08:28:25;1.10;;;0.70;;
44784;SDS011;30507;53.160;8.210;2023-05-17T08:30:50;2.17;;;0.50;;
44784;SDS011;30507;53.160;8.210;2023-05-17T08:33:16;0.60;;;0.50;;
44784;SDS011;30507;53.160;8.210;2023-05-17T08:35:41;1.45;;;1.23;;
44784;SDS011;30507;53.160;8.210;2023-05-17T08:38:06;0.95;;;0.77;;
44784;SDS011;30507;53.160;8.210;2023-05-17T08:40:32;1.02;;;0.43;;
44784;SDS011;30507;53.160;8.210;2023-05-17T08:42:57;0.50;;;0.50;;
44784;SDS011;30507;53.160;8.210;2023-05-17T08:45:22;0.50;;;0.30;;
44784;SDS011;30507;53.160;8.210;2023-05-17T08:47:48;1.55;;;0.82;;
44784;SDS011;30507;53.160;8.210;2023-05-17T08:50:15;0.85;;;0.30;;
44784;SDS011;30507;53.160;8.210;2023-05-17T08:52:43;1.48;;;0.70;;
44784;SDS011;30507;53.160;8.210;2023-05-17T08:55:09;0.85;;;0.40;;
44784;SDS011;30507;53.160;8.210;2023-05-17T08:57:35;3.03;;;0.50;;
44784;SDS011;30507;53.160;8.210;2023-05-17T09:00:01;0.75;;;0.43;;
44784;SDS011;30507;53.160;8.210;2023-05-17T09:02:36;1.55;;;0.77;;
44784;SDS011;30507;53.160;8.210;2023-05-17T09:05:01;1.50;;;0.70;;
44784;SDS011;30507;53.160;8.210;2023-05-17T09:07:26;1.27;;;0.67;;
44784;SDS011;30507;53.160;8.210;2023-05-17T09:09:52;1.02;;;0.60;;
44784;SDS011;30507;53.160;8.210;2023-05-17T09:12:17;0.40;;;0.35;;
44784;SDS011;30507;53.160;8.210;2023-05-17T09:14:42;1.38;;;0.85;;
44784;SDS011;30507;53.160;8.210;2023-05-17T09:17:08;1.48;;;0.52;;
44784;SDS011;30507;53.160;8.210;2023-05-17T09:19:41;1.13;;;0.47;;
44784;SDS011;30507;53.160;8.210;2023-05-17T09:22:07;1.95;;;0.70;;
44784;SDS011;30507;53.160;8.210;2023-05-17T09:24:32;1.27;;;0.93;;
44784;SDS011;30507;53.160;8.210;2023-05-17T09:27:01;1.30;;;0.47;;
44784;SDS011;30507;53.160;8.210;2023-05-17T09:29:28;1.15;;;0.38;;
44784;SDS011;30507;53.160;8.210;2023-05-17T09:31:54;0.30;;;0.30;;
44784;SDS011;30507;53.160;8.210;2023-05-17T09:34:19;0.60;;;0.28;;
44784;SDS011;30507;53.160;8.210;2023-05-17T09:36:44;1.52;;;0.73;;
44784;SDS011;30507;53.160;8.210;2023-05-17T09:39:10;0.77;;;0.50;;
44784;SDS011;30507;53.160;8.210;2023-05-17T09:41:43;0.30;;;0.22;;
44784;SDS011;30507;53.160;8.210;2023-05-17T09:44:10;0.35;;;0.32;;
44784;SDS011;30507;53.160;8.210;2023-05-17T09:46:36;0.75;;;0.60;;
44784;SDS011;30507;53.160;8.210;2023-05-17T09:49:05;0.47;;;0.30;;
44784;SDS011;30507;53.160;8.210;2023-05-17T09:51:31;0.63;;;0.45;;
44784;SDS011;30507;53.160;8.210;2023-05-17T09:53:58;0.65;;;0.60;;
44784;SDS011;30507;53.160;8.210;2023-05-17T09:56:26;1.27;;;0.65;;
44784;SDS011;30507;53.160;8.210;2023-05-17T09:58:51;0.82;;;0.47;;
44784;SDS011;30507;53.160;8.210;2023-05-17T10:01:16;1.42;;;0.55;;
44784;SDS011;30507;53.160;8.210;2023-05-17T10:03:41;0.47;;;0.27;;
44784;SDS011;30507;53.160;8.210;2023-05-17T10:06:07;1.13;;;0.50;;
44784;SDS011;30507;53.160;8.210;2023-05-17T10:08:33;0.57;;;0.40;;
44784;SDS011;30507;53.160;8.210;2023-05-17T10:11:07;0.20;;;0.20;;
44784;SDS011;30507;53.160;8.210;2023-05-17T10:13:36;0.43;;;0.35;;
44784;SDS011;30507;53.160;8.210;2023-05-17T10:16:04;0.40;;;0.40;;
44784;SDS011;30507;53.160;8.210;2023-05-17T10:18:30;1.00;;;0.32;;
44784;SDS011;30507;53.160;8.210;2023-05-17T10:20:56;0.50;;;0.45;;
44784;SDS011;30507;53.160;8.210;2023-05-17T10:23:21;0.97;;;0.37;;
44784;SDS011;30507;53.160;8.210;2023-05-17T10:25:47;0.65;;;0.30;;
44784;SDS011;30507;53.160;8.210;2023-05-17T10:28:13;0.60;;;0.60;;
44784;SDS011;30507;53.160;8.210;2023-05-17T10:30:41;1.02;;;0.65;;
44784;SDS011;30507;53.160;8.210;2023-05-17T10:33:07;0.77;;;0.47;;
44784;SDS011;30507;53.160;8.210;2023-05-17T10:35:32;0.73;;;0.40;;
44784;SDS011;30507;53.160;8.210;2023-05-17T10:37:58;0.55;;;0.38;;
44784;SDS011;30507;53.160;8.210;2023-05-17T10:40:24;0.50;;;0.13;;
44784;SDS011;30507;53.160;8.210;2023-05-17T10:42:49;1.37;;;0.30;;
44784;SDS011;30507;53.160;8.210;2023-05-17T10:45:15;0.25;;;0.25;;
44784;SDS011;30507;53.160;8.210;2023-05-17T10:47:44;0.40;;;0.15;;
44784;SDS011;30507;53.160;8.210;2023-05-17T10:50:10;0.30;;;0.30;;
44784;SDS011;30507;53.160;8.210;2023-05-17T10:52:44;1.05;;;0.22;;
44784;SDS011;30507;53.160;8.210;2023-05-17T10:55:10;0.52;;;0.32;;
44784;SDS011;30507;53.160;8.210;2023-05-17T10:57:36;0.88;;;0.32;;
44784;SDS011;30507;53.160;8.210;2023-05-17T11:00:02;0.95;;;0.50;;
44784;SDS011;30507;53.160;8.210;2023-05-17T11:02:30;0.40;;;0.40;;
44784;SDS011;30507;53.160;8.210;2023-05-17T11:04:55;0.22;;;0.20;;
44784;SDS011;30507;53.160;8.210;2023-05-17T11:07:25;0.38;;;0.25;;
44784;SDS011;30507;53.160;8.210;2023-05-17T11:10:00;0.47;;;0.38;;
44784;SDS011;30507;53.160;8.210;2023-05-17T11:12:39;1.55;;;0.50;;
44784;SDS011;30507;53.160;8.210;2023-05-17T11:17:35;0.32;;;0.30;;
44784;SDS011;30507;53.160;8.210;2023-05-17T11:20:05;0.65;;;0.22;;
44784;SDS011;30507;53.160;8.210;2023-05-17T11:22:38;0.57;;;0.43;;
44784;SDS011;30507;53.160;8.210;2023-05-17T11:25:04;0.70;;;0.60;;
44784;SDS011;30507;53.160;8.210;2023-05-17T11:27:34;0.25;;;0.25;;
44784;SDS011;30507;53.160;8.210;2023-05-17T11:30:06;0.50;;;0.30;;
44784;SDS011;30507;53.160;8.210;2023-05-17T11:32:31;0.35;;;0.30;;
44784;SDS011;30507;53.160;8.210;2023-05-17T11:34:59;1.87;;;0.30;;
44784;SDS011;30507;53.160;8.210;2023-05-17T11:37:25;0.32;;;0.10;;
44784;SDS011;30507;53.160;8.210;2023-05-17T11:40:09;0.60;;;0.40;;
44784;SDS011;30507;53.160;8.210;2023-05-17T11:42:36;0.22;;;0.22;;
44784;SDS011;30507;53.160;8.210;2023-05-17T11:45:02;0.73;;;0.28;;
44784;SDS011;30507;53.160;8.210;2023-05-17T11:47:27;1.27;;;0.57;;
44784;SDS011;30507;53.160;8.210;2023-05-17T11:49:53;0.20;;;0.10;;
44784;SDS011;30507;53.160;8.210;2023-05-17T11:52:18;0.55;;;0.55;;
44784;SDS011;30507;53.160;8.210;2023-05-17T11:54:44;0.50;;;0.30;;
44784;SDS011;30507;53.160;8.210;2023-05-17T11:57:10;0.10;;;0.10;;
44784;SDS011;30507;53.160;8.210;2023-05-17T11:59:36;1.65;;;0.20;;
44784;SDS011;30507;53.160;8.210;2023-05-17T12:02:04;0.47;;;0.30;;
44784;SDS011;30507;53.160;8.210;2023-05-17T12:04:33;0.95;;;0.40;;
44784;SDS011;30507;53.160;8.210;2023-05-17T12:06:58;2.17;;;0.57;;
44784;SDS011;30507;53.160;8.210;2023-05-17T12:09:25;0.20;;;0.20;;
44784;SDS011;30507;53.160;8.210;2023-05-17T12:11:50;7.13;;;0.90;;
44784;SDS011;30507;53.160;8.210;2023-05-17T12:14:16;3.53;;;0.40;;
44784;SDS011;30507;53.160;8.210;2023-05-17T12:16:42;1.45;;;0.43;;
44784;SDS011;30507;53.160;8.210;2023-05-17T12:19:17;0.63;;;0.50;;
44784;SDS011;30507;53.160;8.210;2023-05-17T12:21:43;0.32;;;0.30;;
44784;SDS011;30507;53.160;8.210;2023-05-17T12:24:08;0.50;;;0.50;;
44784;SDS011;30507;53.160;8.210;2023-05-17T12:26:34;2.43;;;0.40;;
44784;SDS011;30507;53.160;8.210;2023-05-17T12:29:00;4.25;;;0.68;;
44784;SDS011;30507;53.160;8.210;2023-05-17T12:31:26;2.75;;;0.30;;
44784;SDS011;30507;53.160;8.210;2023-05-17T12:33:52;0.40;;;0.40;;
44784;SDS011;30507;53.160;8.210;2023-05-17T12:36:17;0.90;;;0.30;;
44784;SDS011;30507;53.160;8.210;2023-05-17T12:38:43;0.63;;;0.30;;
44784;SDS011;30507;53.160;8.210;2023-05-17T12:41:12;1.58;;;0.82;;
44784;SDS011;30507;53.160;8.210;2023-05-17T12:43:39;1.38;;;0.30;;
44784;SDS011;30507;53.160;8.210;2023-05-17T12:46:08;2.72;;;0.75;;
44784;SDS011;30507;53.160;8.210;2023-05-17T12:48:34;7.68;;;2.10;;
44784;SDS011;30507;53.160;8.210;2023-05-17T12:53:36;7.50;;;1.50;;
44784;SDS011;30507;53.160;8.210;2023-05-17T12:56:01;13.00;;;1.88;;
44784;SDS011;30507;53.160;8.210;2023-05-17T12:58:26;5.77;;;1.10;;
44784;SDS011;30507;53.160;8.210;2023-05-17T13:00:58;9.63;;;1.30;;
44784;SDS011;30507;53.160;8.210;2023-05-17T13:03:24;5.43;;;1.20;;
44784;SDS011;30507;53.160;8.210;2023-05-17T13:05:56;3.70;;;0.80;;
44784;SDS011;30507;53.160;8.210;2023-05-17T13:08:22;3.45;;;1.48;;
44784;SDS011;30507;53.160;8.210;2023-05-17T13:10:48;7.18;;;1.60;;
44784;SDS011;30507;53.160;8.210;2023-05-17T13:13:17;5.20;;;1.58;;
44784;SDS011;30507;53.160;8.210;2023-05-17T13:15:44;1.35;;;0.60;;
44784;SDS011;30507;53.160;8.210;2023-05-17T13:18:12;3.25;;;0.85;;
44784;SDS011;30507;53.160;8.210;2023-05-17T13:20:39;5.05;;;0.95;;
44784;SDS011;30507;53.160;8.210;2023-05-17T13:23:05;1.17;;;0.40;;
44784;SDS011;30507;53.160;8.210;2023-05-17T13:25:30;2.75;;;1.23;;
44784;SDS011;30507;53.160;8.210;2023-05-17T13:27:55;3.73;;;1.77;;
44784;SDS011;30507;53.160;8.210;2023-05-17T13:30:20;6.28;;;0.93;;
44784;SDS011;30507;53.160;8.210;2023-05-17T13:32:46;2.53;;;1.03;;
44784;SDS011;30507;53.160;8.210;2023-05-17T13:35:11;3.17;;;0.57;;
44784;SDS011;30507;53.160;8.210;2023-05-17T13:37:36;1.67;;;1.30;;
44784;SDS011;30507;53.160;8.210;2023-05-17T13:40:02;2.40;;;0.80;;
44784;SDS011;30507;53.160;8.210;2023-05-17T13:42:27;2.70;;;0.85;;
44784;SDS011;30507;53.160;8.210;2023-05-17T13:44:52;2.45;;;1.23;;
44784;SDS011;30507;53.160;8.210;2023-05-17T13:47:18;2.13;;;0.70;;
44784;SDS011;30507;53.160;8.210;2023-05-17T13:49:43;0.93;;;0.40;;
44784;SDS011;30507;53.160;8.210;2023-05-17T13:52:08;1.92;;;0.63;;
44784;SDS011;30507;53.160;8.210;2023-05-17T13:54:33;0.70;;;0.60;;
44784;SDS011;30507;53.160;8.210;2023-05-17T13:56:59;2.63;;;0.95;;
44784;SDS011;30507;53.160;8.210;2023-05-17T13:59:24;2.63;;;0.98;;
44784;SDS011;30507;53.160;8.210;2023-05-17T14:01:50;1.95;;;1.05;;
44784;SDS011;30507;53.160;8.210;2023-05-17T14:04:15;2.57;;;0.50;;
44784;SDS011;30507;53.160;8.210;2023-05-17T14:06:40;1.53;;;0.40;;
44784;SDS011;30507;53.160;8.210;2023-05-17T14:09:05;2.75;;;0.65;;
44784;SDS011;30507;53.160;8.210;2023-05-17T14:11:30;2.17;;;1.20;;
44784;SDS011;30507;53.160;8.210;2023-05-17T14:13:56;1.20;;;0.38;;
44784;SDS011;30507;53.160;8.210;2023-05-17T14:16:21;1.13;;;0.40;;
44784;SDS011;30507;53.160;8.210;2023-05-17T14:18:46;1.23;;;0.73;;
44784;SDS011;30507;53.160;8.210;2023-05-17T14:21:11;1.17;;;0.50;;
44784;SDS011;30507;53.160;8.210;2023-05-17T14:23:36;1.42;;;0.63;;
44784;SDS011;30507;53.160;8.210;2023-05-17T14:26:02;0.80;;;0.40;;
44784;SDS011;30507;53.160;8.210;2023-05-17T14:28:30;0.98;;;0.85;;
44784;SDS011;30507;53.160;8.210;2023-05-17T14:30:56;2.08;;;0.55;;
44784;SDS011;30507;53.160;8.210;2023-05-17T14:33:21;1.27;;;0.50;;
44784;SDS011;30507;53.160;8.210;2023-05-17T14:35:46;0.67;;;0.40;;
44784;SDS011;30507;53.160;8.210;2023-05-17T14:38:11;3.03;;;0.85;;
44784;SDS011;30507;53.160;8.210;2023-05-17T14:40:36;0.57;;;0.30;;
44784;SDS011;30507;53.160;8.210;2023-05-17T14:43:02;2.08;;;0.57;;
44784;SDS011;30507;53.160;8.210;2023-05-17T14:45:27;3.15;;;0.80;;
44784;SDS011;30507;53.160;8.210;2023-05-17T14:47:52;2.45;;;0.85;;
44784;SDS011;30507;53.160;8.210;2023-05-17T14:50:17;2.83;;;1.25;;
44784;SDS011;30507;53.160;8.210;2023-05-17T14:52:42;2.20;;;0.60;;
44784;SDS011;30507;53.160;8.210;2023-05-17T14:55:08;4.15;;;0.75;;